Time;durP1;ratioP1;P1;durP2;ratioP2;P2;SDS_P1;SDS_P2;PMS_P1;PMS_P2;Temp;Humidity;BMP_temperature;BMP_pressure;BME280_temperature;BME280_humidity;BME280_pressure;Samples;Min_cycle;Max_cycle;Signal;HPM_P1;HPM_P2
2022/09/21 00:00:33;;;;;;;4.43;1.42;;;;;;;;;;5062528;28;20056;-74
2022/09/21 00:03:01;;;;;;;2.05;1.23;;;;;;;;;;5071721;28;20085;-73
2022/09/21 00:05:28;;;;;;;3.83;1.20;;;;;;;;;;5073420;28;20834;-73
2022/09/21 00:07:59;;;;;;;3.22;1.17;;;;;;;;;;5073523;28;20048;-73
2022/09/21 00:10:26;;;;;;;6.63;1.77;;;;;;;;;;5074503;28;20045;-74
2022/09/21 00:12:54;;;;;;;2.45;1.48;;;;;;;;;;5091171;28;20045;-74
2022/09/21 00:15:22;;;;;;;6.30;1.73;;;;;;;;;;5067985;28;20056;-74
2022/09/21 00:17:52;;;;;;;4.03;1.58;;;;;;;;;;5071072;28;20052;-73
2022/09/21 00:20:20;;;;;;;7.43;2.10;;;;;;;;;;5075159;28;20060;-74
2022/09/21 00:22:48;;;;;;;4.57;1.60;;;;;;;;;;5076743;28;20079;-74
2022/09/21 00:25:16;;;;;;;3.03;1.63;;;;;;;;;;5085154;28;20071;-73
2022/09/21 00:27:43;;;;;;;2.92;1.58;;;;;;;;;;5072875;28;20079;-73
2022/09/21 00:30:11;;;;;;;3.65;1.67;;;;;;;;;;5079372;28;20144;-73
2022/09/21 00:32:38;;;;;;;5.07;1.38;;;;;;;;;;5072046;28;20075;-74
2022/09/21 00:35:06;;;;;;;1.73;1.27;;;;;;;;;;5071064;28;20045;-74
2022/09/21 00:37:35;;;;;;;3.42;1.10;;;;;;;;;;5067991;28;20049;-73
2022/09/21 00:40:03;;;;;;;1.70;1.08;;;;;;;;;;5084058;28;20049;-73
2022/09/21 00:42:34;;;;;;;2.40;0.90;;;;;;;;;;5077464;28;20202;-74
2022/09/21 00:45:02;;;;;;;2.28;1.25;;;;;;;;;;5072440;28;20049;-73
2022/09/21 00:47:33;;;;;;;2.35;1.10;;;;;;;;;;5069786;28;20048;-74
2022/09/21 00:50:03;;;;;;;3.03;1.40;;;;;;;;;;5077024;28;20059;-74
2022/09/21 00:52:33;;;;;;;2.05;1.38;;;;;;;;;;5072743;28;20049;-73
2022/09/21 00:55:09;;;;;;;1.63;1.20;;;;;;;;;;5074588;28;20048;-73
2022/09/21 00:57:37;;;;;;;6.13;1.63;;;;;;;;;;5070396;28;20049;-73
2022/09/21 01:00:07;;;;;;;10.95;1.67;;;;;;;;;;5077955;28;20048;-73
2022/09/21 01:02:35;;;;;;;5.07;1.90;;;;;;;;;;5073170;28;20048;-74
2022/09/21 01:05:03;;;;;;;5.90;1.52;;;;;;;;;;5080108;28;20049;-74
2022/09/21 01:07:32;;;;;;;5.30;1.52;;;;;;;;;;5069136;28;20062;-74
2022/09/21 01:10:02;;;;;;;3.15;1.50;;;;;;;;;;5082394;28;20049;-73
2022/09/21 01:12:46;;;;;;;3.00;1.52;;;;;;;;;;5073485;28;20049;-74
2022/09/21 01:15:19;;;;;;;7.80;1.30;;;;;;;;;;5081456;28;20056;-73
2022/09/21 01:17:49;;;;;;;4.20;1.43;;;;;;;;;;5073059;28;20059;-74
2022/09/21 01:20:20;;;;;;;2.85;1.40;;;;;;;;;;5080986;28;20338;-73
2022/09/21 01:23:05;;;;;;;7.85;1.70;;;;;;;;;;5070291;28;20053;-74
2022/09/21 01:25:33;;;;;;;1.95;1.20;;;;;;;;;;5074180;28;20048;-73
2022/09/21 01:28:11;;;;;;;4.78;1.70;;;;;;;;;;5073204;28;20049;-73
2022/09/21 01:30:39;;;;;;;3.47;1.10;;;;;;;;;;5065115;28;20060;-73
2022/09/21 01:33:11;;;;;;;;;;;;;;;;;;5077110;28;20056;-74
2022/09/21 01:35:46;;;;;;;1.80;1.38;;;;;;;;;;5084925;28;44623;-73
2022/09/21 01:38:16;;;;;;;2.80;1.45;;;;;;;;;;5067963;28;20057;-74
2022/09/21 01:40:46;;;;;;;3.22;1.85;;;;;;;;;;5075181;28;20052;-73
2022/09/21 01:43:18;;;;;;;3.88;1.65;;;;;;;;;;5066970;28;20053;-74
2022/09/21 01:45:47;;;;;;;2.25;1.10;;;;;;;;;;5067219;28;20064;-73
2022/09/21 01:48:15;;;;;;;3.97;1.13;;;;;;;;;;5068888;28;20499;-74
2022/09/21 01:50:52;;;;;;;2.47;0.95;;;;;;;;;;5078876;28;20870;-73
2022/09/21 01:53:22;;;;;;;9.27;1.27;;;;;;;;;;5073121;28;20094;-73
2022/09/21 01:55:53;;;;;;;3.20;1.23;;;;;;;;;;5066621;28;20049;-73
2022/09/21 01:58:26;;;;;;;0.93;0.70;;;;;;;;;;5066302;28;20056;-75
2022/09/21 02:00:56;;;;;;;4.00;0.90;;;;;;;;;;5065312;28;20052;-72
2022/09/21 02:03:36;;;;;;;0.80;0.70;;;;;;;;;;5064814;28;20048;-74
2022/09/21 02:06:04;;;;;;;1.55;0.90;;;;;;;;;;5068287;28;20049;-73
2022/09/21 02:08:32;;;;;;;5.10;1.13;;;;;;;;;;5070832;28;20064;-73
2022/09/21 02:11:01;;;;;;;6.45;0.85;;;;;;;;;;5078355;28;20775;-73
2022/09/21 02:13:30;;;;;;;2.35;0.90;;;;;;;;;;5074298;28;20073;-73
2022/09/21 02:16:07;;;;;;;1.42;0.90;;;;;;;;;;5074831;28;20143;-73
2022/09/21 02:18:43;;;;;;;0.90;0.60;;;;;;;;;;5066352;28;20160;-73
2022/09/21 02:21:15;;;;;;;0.40;0.40;;;;;;;;;;5069765;28;20052;-73
2022/09/21 02:23:45;;;;;;;2.88;1.10;;;;;;;;;;5073672;28;20052;-73
2022/09/21 02:26:14;;;;;;;2.70;0.55;;;;;;;;;;5080244;28;20049;-72
2022/09/21 02:28:45;;;;;;;1.75;0.80;;;;;;;;;;5071324;28;20465;-72
2022/09/21 02:31:18;;;;;;;4.13;1.08;;;;;;;;;;5079217;28;20102;-73
2022/09/21 02:33:49;;;;;;;2.80;0.43;;;;;;;;;;5074029;28;20060;-73
2022/09/21 02:36:28;;;;;;;0.77;0.68;;;;;;;;;;5067377;28;20118;-73
2022/09/21 02:39:04;;;;;;;11.30;0.90;;;;;;;;;;5070723;28;20068;-73
2022/09/21 02:41:44;;;;;;;2.08;1.02;;;;;;;;;;5069232;28;20057;-73
2022/09/21 02:44:21;;;;;;;1.45;0.77;;;;;;;;;;5075644;28;20536;-73
2022/09/21 02:46:58;;;;;;;1.13;0.80;;;;;;;;;;5069808;28;20825;-72
2022/09/21 02:49:30;;;;;;;1.67;1.13;;;;;;;;;;5067403;28;20053;-72
2022/09/21 02:51:59;;;;;;;1.43;0.80;;;;;;;;;;5071599;28;20044;-73
2022/09/21 02:54:29;;;;;;;2.65;1.05;;;;;;;;;;5077706;28;20048;-73
2022/09/21 02:56:58;;;;;;;4.03;0.82;;;;;;;;;;5080580;28;20095;-73
2022/09/21 02:59:26;;;;;;;7.55;1.30;;;;;;;;;;5076564;28;20155;-73
2022/09/21 03:01:54;;;;;;;0.95;0.90;;;;;;;;;;5070423;28;20454;-73
2022/09/21 03:04:22;;;;;;;1.60;0.70;;;;;;;;;;5075849;28;20048;-73
2022/09/21 03:06:50;;;;;;;1.27;0.70;;;;;;;;;;5077233;28;20041;-73
2022/09/21 03:09:18;;;;;;;2.20;1.20;;;;;;;;;;5074413;28;20041;-73
2022/09/21 03:11:46;;;;;;;1.13;0.90;;;;;;;;;;5059984;28;20045;-73
2022/09/21 03:14:13;;;;;;;3.35;0.90;;;;;;;;;;5068587;28;20424;-74
2022/09/21 03:16:40;;;;;;;2.70;1.05;;;;;;;;;;5066369;28;20055;-72
2022/09/21 03:19:08;;;;;;;0.85;0.73;;;;;;;;;;5070242;28;20127;-73
2022/09/21 03:21:35;;;;;;;2.00;0.82;;;;;;;;;;5067808;28;20486;-73
2022/09/21 03:24:07;;;;;;;1.63;1.17;;;;;;;;;;5065976;28;20049;-73
2022/09/21 03:26:35;;;;;;;4.13;0.90;;;;;;;;;;5073886;28;20515;-74
2022/09/21 03:29:03;;;;;;;0.68;0.60;;;;;;;;;;5072227;28;20140;-73
2022/09/21 03:31:30;;;;;;;0.88;0.88;;;;;;;;;;5069038;28;20050;-73
2022/09/21 03:33:58;;;;;;;0.73;0.63;;;;;;;;;;5064847;28;20191;-73
2022/09/21 03:36:25;;;;;;;0.60;0.60;;;;;;;;;;5074122;28;20768;-73
2022/09/21 03:38:52;;;;;;;1.35;0.70;;;;;;;;;;5082648;28;20083;-73
2022/09/21 03:41:19;;;;;;;0.55;0.50;;;;;;;;;;5066573;28;20052;-73
2022/09/21 03:43:46;;;;;;;5.28;1.00;;;;;;;;;;5066297;28;20451;-73
2022/09/21 03:46:13;;;;;;;2.05;0.85;;;;;;;;;;5079066;28;20052;-73
2022/09/21 03:48:46;;;;;;;0.60;0.60;;;;;;;;;;5061505;28;20051;-73
2022/09/21 03:51:13;;;;;;;3.40;0.77;;;;;;;;;;5069108;28;20793;-73
2022/09/21 03:53:40;;;;;;;0.70;0.57;;;;;;;;;;5066435;28;20045;-73
2022/09/21 03:56:07;;;;;;;1.02;0.80;;;;;;;;;;5063167;28;20107;-73
2022/09/21 03:58:35;;;;;;;1.38;0.75;;;;;;;;;;5066458;28;20045;-74
2022/09/21 04:01:03;;;;;;;1.27;0.80;;;;;;;;;;5069044;28;20045;-74
2022/09/21 04:03:30;;;;;;;1.10;0.77;;;;;;;;;;5065085;28;20057;-73
2022/09/21 04:05:58;;;;;;;1.52;0.85;;;;;;;;;;5070064;28;20061;-73
2022/09/21 04:08:25;;;;;;;0.70;0.63;;;;;;;;;;5064503;28;20052;-73
2022/09/21 04:10:55;;;;;;;0.95;0.70;;;;;;;;;;5072597;28;20049;-73
2022/09/21 04:13:23;;;;;;;1.65;0.82;;;;;;;;;;5066698;28;20111;-72
2022/09/21 04:15:50;;;;;;;0.88;0.65;;;;;;;;;;5074300;28;20045;-73
2022/09/21 04:18:19;;;;;;;0.68;0.68;;;;;;;;;;5062998;28;20052;-73
2022/09/21 04:20:46;;;;;;;0.98;0.82;;;;;;;;;;5074475;28;20052;-73
2022/09/21 04:23:13;;;;;;;2.15;0.85;;;;;;;;;;5076501;28;20048;-73
2022/09/21 04:25:40;;;;;;;1.02;0.80;;;;;;;;;;5079537;28;20564;-73
2022/09/21 04:28:08;;;;;;;1.42;1.30;;;;;;;;;;5067827;28;20853;-73
2022/09/21 04:30:35;;;;;;;2.13;0.90;;;;;;;;;;5069250;28;20102;-73
2022/09/21 04:33:04;;;;;;;1.60;0.77;;;;;;;;;;5062839;28;20491;-72
2022/09/21 04:35:31;;;;;;;2.30;1.25;;;;;;;;;;5070698;28;20056;-73
2022/09/21 04:37:58;;;;;;;2.20;0.90;;;;;;;;;;5067399;28;20060;-73
2022/09/21 04:40:27;;;;;;;1.80;1.00;;;;;;;;;;5091208;28;20048;-73
2022/09/21 04:42:54;;;;;;;8.07;1.45;;;;;;;;;;5072820;28;20164;-73
2022/09/21 04:45:23;;;;;;;1.52;1.13;;;;;;;;;;5077356;28;20106;-73
2022/09/21 04:47:50;;;;;;;2.75;1.00;;;;;;;;;;5072152;28;21352;-73
2022/09/21 04:50:18;;;;;;;6.00;0.90;;;;;;;;;;5074746;28;20080;-73
2022/09/21 04:52:45;;;;;;;3.00;1.10;;;;;;;;;;5074693;28;20502;-73
2022/09/21 04:55:12;;;;;;;16.48;1.17;;;;;;;;;;5077885;28;20083;-75
2022/09/21 04:57:39;;;;;;;4.40;1.20;;;;;;;;;;5075566;28;20045;-74
2022/09/21 05:00:07;;;;;;;1.00;0.90;;;;;;;;;;5073617;28;20534;-73
2022/09/21 05:02:34;;;;;;;3.80;0.93;;;;;;;;;;5076551;28;20568;-75
2022/09/21 05:05:01;;;;;;;1.98;1.17;;;;;;;;;;5070910;28;20110;-75
2022/09/21 05:07:28;;;;;;;2.72;0.88;;;;;;;;;;5071013;28;20880;-75
2022/09/21 05:10:01;;;;;;;2.00;0.70;;;;;;;;;;5068660;28;20103;-75
2022/09/21 05:12:29;;;;;;;1.58;1.13;;;;;;;;;;5066605;28;20057;-74
2022/09/21 05:14:56;;;;;;;4.65;0.70;;;;;;;;;;5075941;28;20048;-74
2022/09/21 05:17:23;;;;;;;0.73;0.70;;;;;;;;;;5080639;28;20044;-74
2022/09/21 05:19:51;;;;;;;1.60;1.13;;;;;;;;;;5094913;28;20499;-75
2022/09/21 05:22:19;;;;;;;1.25;0.60;;;;;;;;;;5069677;28;20585;-74
2022/09/21 05:24:46;;;;;;;1.73;1.15;;;;;;;;;;5063413;28;20144;-74
2022/09/21 05:27:13;;;;;;;2.22;0.90;;;;;;;;;;5066559;28;20049;-74
2022/09/21 05:29:40;;;;;;;1.08;0.80;;;;;;;;;;5073530;28;20502;-73
2022/09/21 05:32:13;;;;;;;2.30;0.85;;;;;;;;;;5066789;28;20053;-74
2022/09/21 05:34:41;;;;;;;;;;;;;;;;;;5067710;28;20136;-74
2022/09/21 05:37:27;;;;;;;4.90;1.15;;;;;;;;;;5071125;28;44649;-74
2022/09/21 05:39:54;;;;;;;2.15;1.00;;;;;;;;;;5072439;28;20049;-74
2022/09/21 05:42:21;;;;;;;3.90;1.80;;;;;;;;;;5066858;28;20155;-74
2022/09/21 05:44:49;;;;;;;0.95;0.85;;;;;;;;;;5068927;28;20099;-73
2022/09/21 05:47:22;;;;;;;1.25;0.98;;;;;;;;;;5064340;28;20044;-74
2022/09/21 05:50:15;;;;;;;2.08;1.17;;;;;;;;;;5060894;28;20053;-75
2022/09/21 05:52:48;;;;;;;1.55;1.13;;;;;;;;;;5067521;28;20135;-74
2022/09/21 05:55:26;;;;;;;13.20;1.38;;;;;;;;;;5076233;28;20049;-75
2022/09/21 05:58:12;;;;;;;1.67;0.82;;;;;;;;;;5077932;28;20083;-73
2022/09/21 06:00:53;;;;;;;4.53;1.00;;;;;;;;;;5068645;28;20052;-73
2022/09/21 06:03:26;;;;;;;1.55;0.95;;;;;;;;;;5075944;28;20049;-74
2022/09/21 06:05:53;;;;;;;1.25;0.95;;;;;;;;;;5068026;28;20846;-74
2022/09/21 06:08:21;;;;;;;2.60;1.25;;;;;;;;;;5074722;28;20056;-74
2022/09/21 06:10:48;;;;;;;3.03;1.90;;;;;;;;;;5067302;28;20045;-74
2022/09/21 06:13:15;;;;;;;2.33;1.52;;;;;;;;;;5075118;28;20056;-74
2022/09/21 06:15:42;;;;;;;5.50;2.03;;;;;;;;;;5074225;28;20122;-73
2022/09/21 06:18:10;;;;;;;1.10;1.00;;;;;;;;;;5073234;28;20053;-74
2022/09/21 06:20:43;;;;;;;1.77;1.20;;;;;;;;;;5071935;28;20139;-74
2022/09/21 06:23:11;;;;;;;1.95;1.05;;;;;;;;;;5078662;28;20585;-73
2022/09/21 06:25:38;;;;;;;2.03;1.02;;;;;;;;;;5074152;28;20060;-73
2022/09/21 06:28:06;;;;;;;1.58;1.10;;;;;;;;;;5070611;28;20107;-74
2022/09/21 06:30:34;;;;;;;2.00;1.40;;;;;;;;;;5071062;28;20052;-74
2022/09/21 06:33:01;;;;;;;2.88;1.60;;;;;;;;;;5076906;28;20927;-74
2022/09/21 06:35:29;;;;;;;2.83;1.83;;;;;;;;;;5073025;28;20045;-74
2022/09/21 06:37:58;;;;;;;3.10;1.40;;;;;;;;;;5072207;28;20053;-73
2022/09/21 06:40:26;;;;;;;2.28;1.27;;;;;;;;;;5070799;28;20071;-74
2022/09/21 06:42:58;;;;;;;2.35;1.48;;;;;;;;;;5073155;28;20088;-73
2022/09/21 06:45:26;;;;;;;4.30;2.22;;;;;;;;;;5074731;28;20052;-73
2022/09/21 06:47:53;;;;;;;2.95;1.83;;;;;;;;;;5072978;28;20053;-73
2022/09/21 06:50:20;;;;;;;6.32;2.03;;;;;;;;;;5073846;28;20045;-74
2022/09/21 06:52:47;;;;;;;2.42;1.80;;;;;;;;;;5072469;28;20045;-74
2022/09/21 06:55:15;;;;;;;4.50;2.47;;;;;;;;;;5067664;28;20045;-74
2022/09/21 06:57:43;;;;;;;5.28;2.60;;;;;;;;;;5069590;28;20123;-73
2022/09/21 07:00:11;;;;;;;7.70;2.25;;;;;;;;;;5071296;28;20099;-74
2022/09/21 07:02:42;;;;;;;3.35;2.42;;;;;;;;;;5071540;28;20048;-74
2022/09/21 07:05:09;;;;;;;6.70;2.97;;;;;;;;;;5069938;28;20045;-74
2022/09/21 07:07:36;;;;;;;5.10;2.30;;;;;;;;;;5073795;28;20243;-74
2022/09/21 07:10:06;;;;;;;6.10;2.45;;;;;;;;;;5065626;28;20164;-75
2022/09/21 07:12:40;;;;;;;4.97;2.22;;;;;;;;;;5072694;28;20053;-74
2022/09/21 07:15:09;;;;;;;4.55;2.30;;;;;;;;;;5082923;28;20102;-74
2022/09/21 07:17:37;;;;;;;4.72;2.78;;;;;;;;;;5063518;28;20912;-74
2022/09/21 07:20:06;;;;;;;6.20;2.75;;;;;;;;;;5069786;28;20075;-74
2022/09/21 07:22:35;;;;;;;3.85;2.40;;;;;;;;;;5085608;28;20044;-74
2022/09/21 07:25:02;;;;;;;5.50;2.80;;;;;;;;;;5082139;28;20056;-75
2022/09/21 07:27:30;;;;;;;5.95;2.63;;;;;;;;;;5071842;28;20103;-74
2022/09/21 07:29:57;;;;;;;4.53;3.00;;;;;;;;;;5078445;28;20882;-74
2022/09/21 07:32:25;;;;;;;8.43;2.90;;;;;;;;;;5071294;28;20045;-74
2022/09/21 07:34:55;;;;;;;6.70;2.65;;;;;;;;;;5075354;28;20049;-74
2022/09/21 07:37:23;;;;;;;8.45;3.13;;;;;;;;;;5066537;28;20053;-74
2022/09/21 07:39:51;;;;;;;5.07;2.67;;;;;;;;;;5067133;28;20098;-74
2022/09/21 07:42:20;;;;;;;4.82;3.10;;;;;;;;;;5075620;28;20961;-74
2022/09/21 07:44:47;;;;;;;6.20;2.60;;;;;;;;;;5070053;28;20053;-74
2022/09/21 07:47:15;;;;;;;6.22;2.55;;;;;;;;;;5065452;28;20055;-74
2022/09/21 07:49:42;;;;;;;6.25;2.80;;;;;;;;;;5065153;28;20049;-74
2022/09/21 07:52:10;;;;;;;7.90;3.22;;;;;;;;;;5072431;28;20923;-74
2022/09/21 07:54:37;;;;;;;5.13;2.75;;;;;;;;;;5074697;28;20053;-74
2022/09/21 07:59:51;;;;;;;8.77;3.22;;;;;;;;;;5074366;28;20109;-74
2022/09/21 08:02:18;;;;;;;8.05;3.60;;;;;;;;;;5080203;28;20049;-74
2022/09/21 08:04:45;;;;;;;5.03;2.55;;;;;;;;;;5064999;28;20060;-74
2022/09/21 08:07:12;;;;;;;12.18;2.75;;;;;;;;;;5070019;28;20860;-74
2022/09/21 08:09:39;;;;;;;13.23;2.78;;;;;;;;;;5078044;28;20053;-74
2022/09/21 08:12:08;;;;;;;6.90;2.90;;;;;;;;;;5074902;28;20033;-74
2022/09/21 08:14:35;;;;;;;3.55;2.00;;;;;;;;;;5070655;28;20108;-74
2022/09/21 08:17:02;;;;;;;7.05;2.10;;;;;;;;;;5072162;28;20913;-74
2022/09/21 08:19:29;;;;;;;6.07;1.80;;;;;;;;;;5082910;28;20037;-74
2022/09/21 08:21:57;;;;;;;4.32;1.80;;;;;;;;;;5084461;28;20547;-74
2022/09/21 08:24:27;;;;;;;5.70;2.22;;;;;;;;;;5072225;28;20053;-74
2022/09/21 08:26:54;;;;;;;6.15;1.80;;;;;;;;;;5082603;28;20071;-74
2022/09/21 08:29:22;;;;;;;5.95;1.80;;;;;;;;;;5067600;28;21265;-74
2022/09/21 08:31:49;;;;;;;4.75;1.83;;;;;;;;;;5077440;28;20045;-75
2022/09/21 08:34:18;;;;;;;3.35;1.70;;;;;;;;;;5074827;28;20044;-74
2022/09/21 08:36:45;;;;;;;3.33;1.63;;;;;;;;;;5071479;28;20742;-74
2022/09/21 08:39:16;;;;;;;5.43;1.35;;;;;;;;;;5072491;28;20073;-74
2022/09/21 08:41:59;;;;;;;3.72;1.67;;;;;;;;;;5073675;28;20060;-74
2022/09/21 08:44:33;;;;;;;3.42;1.65;;;;;;;;;;5075305;28;20107;-74
2022/09/21 08:47:00;;;;;;;5.45;1.40;;;;;;;;;;5074638;28;20057;-74
2022/09/21 08:49:27;;;;;;;8.70;1.45;;;;;;;;;;5076116;28;21259;-74
2022/09/21 08:52:02;;;;;;;10.65;1.63;;;;;;;;;;5072284;28;20073;-74
2022/09/21 08:54:37;;;;;;;3.63;1.70;;;;;;;;;;5072943;28;20108;-74
2022/09/21 08:57:04;;;;;;;5.43;1.60;;;;;;;;;;5071893;28;20053;-73
2022/09/21 08:59:33;;;;;;;6.57;1.15;;;;;;;;;;5073827;28;20052;-74
2022/09/21 09:02:04;;;;;;;4.05;1.17;;;;;;;;;;5077547;28;20053;-74
2022/09/21 09:04:49;;;;;;;6.40;1.27;;;;;;;;;;5080256;28;20128;-74
2022/09/21 09:07:26;;;;;;;3.05;1.10;;;;;;;;;;5069439;28;20056;-73
2022/09/21 09:09:53;;;;;;;1.98;1.23;;;;;;;;;;5072606;28;20056;-73
2022/09/21 09:12:33;;;;;;;11.48;1.58;;;;;;;;;;5079474;28;20049;-74
2022/09/21 09:15:09;;;;;;;3.70;1.33;;;;;;;;;;5069315;28;20053;-74
2022/09/21 09:17:56;;;;;;;2.65;1.20;;;;;;;;;;5063515;28;23597;-74
2022/09/21 09:20:29;;;;;;;3.70;1.30;;;;;;;;;;5076079;28;20107;-74
2022/09/21 09:23:06;;;;;;;5.22;1.30;;;;;;;;;;5077032;28;20092;-74
2022/09/21 09:25:39;;;;;;;3.40;1.00;;;;;;;;;;5079903;28;20048;-74
2022/09/21 09:28:17;;;;;;;4.20;1.02;;;;;;;;;;5068739;28;20063;-74
2022/09/21 09:30:45;;;;;;;3.80;0.93;;;;;;;;;;5071787;28;20851;-73
2022/09/21 09:33:18;;;;;;;6.05;1.30;;;;;;;;;;5084051;28;20049;-74
2022/09/21 09:35:48;;;;;;;8.07;1.35;;;;;;;;;;5076044;28;21022;-74
2022/09/21 09:38:29;;;;;;;1.92;0.70;;;;;;;;;;5070777;28;20041;-75
2022/09/21 09:40:56;;;;;;;2.35;1.00;;;;;;;;;;5072141;28;20077;-74
2022/09/21 09:43:30;;;;;;;4.15;1.05;;;;;;;;;;5071072;28;20053;-74
2022/09/21 09:46:03;;;;;;;6.05;1.02;;;;;;;;;;5068917;28;20053;-74
2022/09/21 09:48:39;;;;;;;2.90;0.88;;;;;;;;;;5067011;28;20045;-74
2022/09/21 09:51:09;;;;;;;2.53;0.63;;;;;;;;;;5071806;28;20057;-74
2022/09/21 09:53:37;;;;;;;3.88;1.05;;;;;;;;;;5069561;28;20048;-74
2022/09/21 09:56:04;;;;;;;7.18;1.60;;;;;;;;;;5075142;28;20519;-75
2022/09/21 09:58:41;;;;;;;3.42;0.85;;;;;;;;;;5075218;28;20049;-73
2022/09/21 10:01:09;;;;;;;3.88;1.23;;;;;;;;;;5079697;28;20076;-76
2022/09/21 10:03:37;;;;;;;7.30;1.20;;;;;;;;;;5071104;28;20076;-75
2022/09/21 10:06:04;;;;;;;4.55;1.10;;;;;;;;;;5072035;28;20057;-76
2022/09/21 10:08:45;;;;;;;3.83;0.75;;;;;;;;;;5072059;28;20049;-75
2022/09/21 10:11:14;;;;;;;4.47;1.17;;;;;;;;;;5071433;28;20048;-75
2022/09/21 10:13:42;;;;;;;6.00;1.00;;;;;;;;;;5069049;28;20045;-76
2022/09/21 10:16:09;;;;;;;6.80;1.10;;;;;;;;;;5073833;28;20045;-74
2022/09/21 10:18:39;;;;;;;4.68;1.02;;;;;;;;;;5072896;28;20112;-75
2022/09/21 10:21:22;;;;;;;5.70;0.70;;;;;;;;;;5074269;28;20049;-75
2022/09/21 10:23:53;;;;;;;1.80;0.70;;;;;;;;;;5066048;28;20060;-75
2022/09/21 10:26:20;;;;;;;1.38;0.60;;;;;;;;;;5068122;28;20050;-73
2022/09/21 10:28:58;;;;;;;4.05;0.90;;;;;;;;;;5070971;28;20126;-73
2022/09/21 10:31:26;;;;;;;6.38;1.10;;;;;;;;;;5067299;28;20049;-74
2022/09/21 10:34:04;;;;;;;5.15;1.00;;;;;;;;;;5064126;28;20853;-75
2022/09/21 10:36:36;;;;;;;5.80;1.08;;;;;;;;;;5066092;28;20787;-74
2022/09/21 10:39:22;;;;;;;6.05;0.90;;;;;;;;;;5073170;28;20091;-75
2022/09/21 10:41:50;;;;;;;5.82;1.02;;;;;;;;;;5063710;28;20529;-74
2022/09/21 10:44:18;;;;;;;3.30;0.70;;;;;;;;;;5074496;28;20049;-74
2022/09/21 10:46:46;;;;;;;5.22;0.70;;;;;;;;;;5071614;28;20048;-75
2022/09/21 10:49:17;;;;;;;4.00;0.90;;;;;;;;;;5072465;28;20049;-74
2022/09/21 10:51:45;;;;;;;5.97;1.00;;;;;;;;;;5069370;28;20100;-74
2022/09/21 10:54:15;;;;;;;3.20;0.88;;;;;;;;;;5074160;28;20147;-74
2022/09/21 10:56:57;;;;;;;3.25;0.90;;;;;;;;;;5073132;28;20084;-74
2022/09/21 10:59:27;;;;;;;2.03;0.50;;;;;;;;;;5067942;28;20053;-74
2022/09/21 11:01:56;;;;;;;8.63;0.93;;;;;;;;;;5066950;28;20099;-74
2022/09/21 11:04:23;;;;;;;4.40;1.05;;;;;;;;;;5071661;28;20075;-74
2022/09/21 11:07:11;;;;;;;2.33;0.88;;;;;;;;;;5073048;28;20087;-74
2022/09/21 11:09:44;;;;;;;3.40;0.60;;;;;;;;;;5076555;28;20045;-76
2022/09/21 11:12:30;;;;;;;5.45;0.75;;;;;;;;;;5078183;28;20049;-74
2022/09/21 11:15:14;;;;;;;6.53;0.90;;;;;;;;;;5071039;28;20041;-75
2022/09/21 11:17:41;;;;;;;;;;;;;;;;;;5063193;28;20088;-74
2022/09/21 11:20:11;;;;;;;2.25;0.60;;;;;;;;;;5066535;28;44741;-74
2022/09/21 11:22:38;;;;;;;3.42;0.80;;;;;;;;;;5074928;28;20049;-75
2022/09/21 11:25:06;;;;;;;3.42;0.75;;;;;;;;;;5068932;28;20122;-74
2022/09/21 11:27:35;;;;;;;1.13;0.70;;;;;;;;;;5071219;28;20056;-73
2022/09/21 11:30:12;;;;;;;3.65;0.93;;;;;;;;;;5066925;28;20053;-74
2022/09/21 11:32:59;;;;;;;1.75;0.77;;;;;;;;;;5071326;28;20156;-75
2022/09/21 11:35:32;;;;;;;2.03;0.57;;;;;;;;;;5073283;28;20055;-74
2022/09/21 11:38:13;;;;;;;0.77;0.47;;;;;;;;;;5069940;28;20054;-74
2022/09/21 11:40:49;;;;;;;3.22;0.65;;;;;;;;;;5065063;28;20046;-74
2022/09/21 11:43:23;;;;;;;1.77;0.60;;;;;;;;;;5068327;28;20079;-74
2022/09/21 11:45:57;;;;;;;3.67;1.05;;;;;;;;;;5074117;28;20164;-74
2022/09/21 11:48:31;;;;;;;2.95;0.88;;;;;;;;;;5070798;28;20076;-74
2022/09/21 11:51:20;;;;;;;3.70;0.88;;;;;;;;;;5074634;28;20052;-73
2022/09/21 11:54:02;;;;;;;3.30;0.70;;;;;;;;;;5070671;28;20056;-73
2022/09/21 11:56:41;;;;;;;8.70;0.85;;;;;;;;;;5073316;28;20049;-74
2022/09/21 11:59:20;;;;;;;2.55;0.75;;;;;;;;;;5076170;28;20051;-74
2022/09/21 12:02:05;;;;;;;4.55;1.05;;;;;;;;;;5089671;28;20053;-73
2022/09/21 12:04:41;;;;;;;1.98;0.55;;;;;;;;;;5069346;28;20057;-73
2022/09/21 12:07:35;;;;;;;2.30;0.98;;;;;;;;;;5082765;28;20052;-74
2022/09/21 12:10:10;;;;;;;4.75;0.82;;;;;;;;;;5076143;28;20084;-74
2022/09/21 12:12:43;;;;;;;1.42;0.63;;;;;;;;;;5075434;28;20091;-75
2022/09/21 12:15:10;;;;;;;2.67;0.80;;;;;;;;;;5073374;28;20060;-75
2022/09/21 12:17:45;;;;;;;1.55;0.77;;;;;;;;;;5078224;28;20159;-74
2022/09/21 12:20:26;;;;;;;3.22;1.00;;;;;;;;;;5081281;28;20048;-74
2022/09/21 12:22:58;;;;;;;6.28;0.63;;;;;;;;;;5078816;28;20053;-75
2022/09/21 12:25:34;;;;;;;3.72;1.00;;;;;;;;;;5076956;28;20057;-74
2022/09/21 12:28:02;;;;;;;4.03;0.90;;;;;;;;;;5074630;28;20842;-74
2022/09/21 12:30:30;;;;;;;1.10;0.90;;;;;;;;;;5071111;28;20093;-74
2022/09/21 12:33:10;;;;;;;6.05;0.95;;;;;;;;;;5078497;28;20104;-74
2022/09/21 12:35:40;;;;;;;6.15;0.90;;;;;;;;;;5071355;28;20111;-75
2022/09/21 12:38:16;;;;;;;3.50;0.82;;;;;;;;;;5075172;28;23067;-74
2022/09/21 12:41:04;;;;;;;3.65;0.93;;;;;;;;;;5079779;28;20076;-75
2022/09/21 12:43:50;;;;;;;0.57;0.40;;;;;;;;;;5070921;28;20056;-75
2022/09/21 12:46:29;;;;;;;4.60;0.75;;;;;;;;;;5069904;28;20057;-75
2022/09/21 12:48:58;;;;;;;3.78;0.93;;;;;;;;;;5074265;28;20983;-75
2022/09/21 12:51:33;;;;;;;2.20;0.82;;;;;;;;;;5071661;28;20190;-75
2022/09/21 12:54:02;;;;;;;2.65;0.80;;;;;;;;;;5082795;28;20056;-74
2022/09/21 12:56:36;;;;;;;8.75;1.00;;;;;;;;;;5071118;28;20055;-74
2022/09/21 12:59:23;;;;;;;0.50;0.50;;;;;;;;;;5078276;28;20100;-76
2022/09/21 13:01:50;;;;;;;3.90;0.80;;;;;;;;;;5074677;28;20045;-76
2022/09/21 13:04:37;;;;;;;6.38;0.80;;;;;;;;;;5069115;28;20053;-75
2022/09/21 13:07:23;;;;;;;2.85;0.80;;;;;;;;;;5073675;28;20053;-75
2022/09/21 13:09:50;;;;;;;1.20;0.70;;;;;;;;;;5064741;28;20057;-74
2022/09/21 13:12:25;;;;;;;0.88;0.43;;;;;;;;;;5078941;28;20106;-74
2022/09/21 13:14:58;;;;;;;3.95;0.65;;;;;;;;;;5079436;28;20663;-73
2022/09/21 13:17:25;;;;;;;;;;;;;;;;;;5076615;28;20429;-72
2022/09/21 13:19:58;;;;;;;4.80;0.75;;;;;;;;;;5077346;28;42893;-73
2022/09/21 13:22:26;;;;;;;1.75;0.60;;;;;;;;;;5069827;28;20057;-74
2022/09/21 13:25:00;;;;;;;2.08;0.63;;;;;;;;;;5072935;28;20052;-74
2022/09/21 13:27:47;;;;;;;4.45;0.57;;;;;;;;;;5073678;28;20045;-74
2022/09/21 13:30:19;;;;;;;4.25;0.90;;;;;;;;;;5066492;28;20057;-74
2022/09/21 13:32:51;;;;;;;8.30;0.82;;;;;;;;;;5070737;28;20049;-74
2022/09/21 13:35:37;;;;;;;3.10;0.73;;;;;;;;;;5080752;28;20048;-74
2022/09/21 13:38:23;;;;;;;1.55;0.60;;;;;;;;;;5069762;28;20061;-74
2022/09/21 13:40:56;;;;;;;1.52;0.70;;;;;;;;;;5071938;28;20049;-74
2022/09/21 13:43:24;;;;;;;4.30;0.88;;;;;;;;;;5072979;28;20103;-74
2022/09/21 13:45:53;;;;;;;0.88;0.60;;;;;;;;;;5083864;28;20079;-74
2022/09/21 13:48:28;;;;;;;3.47;0.85;;;;;;;;;;5069273;28;20099;-74
2022/09/21 13:51:00;;;;;;;3.65;0.90;;;;;;;;;;5074280;28;20061;-74
2022/09/21 13:53:32;;;;;;;4.05;0.93;;;;;;;;;;5083708;28;20053;-74
2022/09/21 13:56:01;;;;;;;3.72;1.13;;;;;;;;;;5070640;28;20049;-74
2022/09/21 13:58:34;;;;;;;1.30;0.52;;;;;;;;;;5071322;28;20045;-75
2022/09/21 14:01:01;;;;;;;;;;;;;;;;;;5075365;28;20037;-73
2022/09/21 14:03:36;;;;;;;4.13;0.80;;;;;;;;;;5075706;28;44570;-75
2022/09/21 14:06:12;;;;;;;5.05;1.10;;;;;;;;;;5088327;28;20057;-75
2022/09/21 14:08:45;;;;;;;2.00;1.17;;;;;;;;;;5074271;28;20072;-75
2022/09/21 14:11:17;;;;;;;4.60;0.95;;;;;;;;;;5074596;28;21722;-76
2022/09/21 14:13:46;;;;;;;2.22;1.00;;;;;;;;;;5070486;28;20048;-75
2022/09/21 14:16:44;;;;;;;2.97;0.75;;;;;;;;;;5073883;28;20079;-73
2022/09/21 14:19:17;;;;;;;4.63;0.98;;;;;;;;;;5075077;28;20045;-74
2022/09/21 14:21:44;;;;;;;;;;;;;;;;;;5076400;28;20053;-74
2022/09/21 14:24:18;;;;;;;3.95;0.70;;;;;;;;;;5082025;28;44877;-74
2022/09/21 14:26:45;;;;;;;1.33;0.60;;;;;;;;;;5074406;28;20856;-74
2022/09/21 14:29:16;;;;;;;3.13;0.80;;;;;;;;;;5070554;28;20048;-73
2022/09/21 14:31:43;;;;;;;7.65;0.98;;;;;;;;;;5071323;28;20049;-74
2022/09/21 14:34:13;;;;;;;3.63;0.93;;;;;;;;;;5068507;28;20053;-74
2022/09/21 14:36:44;;;;;;;3.92;1.02;;;;;;;;;;5075406;28;20120;-74
2022/09/21 14:39:23;;;;;;;4.32;1.00;;;;;;;;;;5079499;28;20056;-74
2022/09/21 14:41:52;;;;;;;2.85;1.10;;;;;;;;;;5070725;28;20048;-75
2022/09/21 14:44:25;;;;;;;2.95;0.60;;;;;;;;;;5073659;28;20060;-74
2022/09/21 14:47:01;;;;;;;4.22;1.02;;;;;;;;;;5071600;28;20049;-75
2022/09/21 14:49:31;;;;;;;2.38;0.90;;;;;;;;;;5069383;28;20087;-74
2022/09/21 14:52:18;;;;;;;1.33;0.75;;;;;;;;;;5068632;28;20060;-74
2022/09/21 14:55:07;;;;;;;3.95;0.80;;;;;;;;;;5072260;28;20045;-74
2022/09/21 14:57:52;;;;;;;2.33;0.73;;;;;;;;;;5078712;28;20064;-74
2022/09/21 15:00:25;;;;;;;4.53;0.75;;;;;;;;;;5067086;28;20052;-74
2022/09/21 15:03:12;;;;;;;2.92;0.68;;;;;;;;;;5066542;28;20045;-74
2022/09/21 15:05:42;;;;;;;1.98;0.52;;;;;;;;;;5067393;28;20045;-75
2022/09/21 15:11:54;;;;;;;6.60;1.00;;;;;;;;;;4990300;28;20106;-74
2022/09/21 15:14:26;;;;;;;1.95;0.90;;;;;;;;;;4990535;28;21017;-74
2022/09/21 15:16:53;;;;;;;1.52;0.60;;;;;;;;;;4997499;28;20042;-75